Time;durP1;ratioP1;P1;durP2;ratioP2;P2;SDS_P1;SDS_P2;PMS_P1;PMS_P2;Temp;Humidity;BMP_temperature;BMP_pressure;BME280_temperature;BME280_humidity;BME280_pressure;Samples;Min_cycle;Max_cycle;Signal;HPM_P1;HPM_P2
2023/07/12 00:01:16;;;;;;;2.05;1.55;;;;;;;;;;5114215;28;20019;-86
2023/07/12 00:03:43;;;;;;;2.65;1.67;;;;;;;;;;5112032;28;20031;-90
2023/07/12 00:06:17;;;;;;;3.42;2.15;;;;;;;;;;5114753;28;20072;-88
2023/07/12 00:08:43;;;;;;;3.50;2.13;;;;;;;;;;5096771;28;20081;-88
2023/07/12 00:11:26;;;;;;;1.38;1.27;;;;;;;;;;5115024;28;20031;-89
2023/07/12 00:13:57;;;;;;;2.88;1.83;;;;;;;;;;5117525;28;20027;-87
2023/07/12 00:16:22;;;;;;;2.00;1.48;;;;;;;;;;5098729;28;20488;-87
2023/07/12 00:18:48;;;;;;;4.53;1.40;;;;;;;;;;5111512;28;20036;-86
2023/07/12 00:21:22;;;;;;;2.28;1.50;;;;;;;;;;5116795;28;20031;-89
2023/07/12 00:23:55;;;;;;;2.35;1.80;;;;;;;;;;5112945;28;20031;-87
2023/07/12 00:27:00;;;;;;;4.03;2.33;;;;;;;;;;5097939;28;20038;-88
2023/07/12 00:29:48;;;;;;;1.67;1.35;;;;;;;;;;5110031;28;20040;-87
2023/07/12 00:32:14;;;;;;;2.83;2.00;;;;;;;;;;5083141;28;20040;-88
2023/07/12 00:34:51;;;;;;;2.42;1.50;;;;;;;;;;5100076;28;20034;-88
2023/07/12 00:37:19;;;;;;;2.97;1.63;;;;;;;;;;5082857;28;20020;-87
2023/07/12 00:39:45;;;;;;;2.25;1.42;;;;;;;;;;5096224;28;20085;-88
2023/07/12 00:42:27;;;;;;;3.13;1.50;;;;;;;;;;5083867;28;20016;-87
2023/07/12 00:44:56;;;;;;;8.40;1.38;;;;;;;;;;5082362;28;20036;-87
2023/07/12 00:47:22;;;;;;;3.20;1.33;;;;;;;;;;5097658;28;20024;-88
2023/07/12 00:49:48;;;;;;;2.45;1.85;;;;;;;;;;5106293;28;20114;-87
2023/07/12 00:52:16;;;;;;;3.22;1.70;;;;;;;;;;5077721;28;20028;-89
2023/07/12 00:54:59;;;;;;;2.67;1.88;;;;;;;;;;5073786;28;20486;-88
2023/07/12 00:57:31;;;;;;;2.67;2.03;;;;;;;;;;5095736;28;20485;-87
2023/07/12 01:00:10;;;;;;;10.65;2.10;;;;;;;;;;5066887;28;20331;-91
2023/07/12 01:02:37;;;;;;;2.50;1.48;;;;;;;;;;5079741;28;20150;-89
2023/07/12 01:05:03;;;;;;;2.97;1.77;;;;;;;;;;5080010;28;20028;-86
2023/07/12 01:07:30;;;;;;;1.90;1.50;;;;;;;;;;5098450;28;20356;-89
2023/07/12 01:09:56;;;;;;;2.20;1.80;;;;;;;;;;5083476;28;20506;-88
2023/07/12 01:12:22;;;;;;;1.83;1.17;;;;;;;;;;5086204;28;20019;-89
2023/07/12 01:14:48;;;;;;;1.17;0.90;;;;;;;;;;5080294;28;20475;-92
2023/07/12 01:17:16;;;;;;;2.05;1.27;;;;;;;;;;5097217;28;20024;-90
2023/07/12 01:19:42;;;;;;;1.42;1.25;;;;;;;;;;5112882;28;20038;-87
2023/07/12 01:22:08;;;;;;;1.90;1.30;;;;;;;;;;5083875;28;20027;-89
2023/07/12 01:24:34;;;;;;;2.13;1.73;;;;;;;;;;5099926;28;20015;-88
2023/07/12 01:27:06;;;;;;;1.70;1.42;;;;;;;;;;5103846;28;20486;-88
2023/07/12 01:29:31;;;;;;;2.67;1.90;;;;;;;;;;5107428;28;20491;-88
2023/07/12 01:31:57;;;;;;;2.47;1.88;;;;;;;;;;5086461;28;20048;-88
2023/07/12 01:34:23;;;;;;;2.13;1.63;;;;;;;;;;5108311;28;20111;-89
2023/07/12 01:36:49;;;;;;;2.30;1.35;;;;;;;;;;5111896;28;20140;-89
2023/07/12 01:39:14;;;;;;;3.05;1.88;;;;;;;;;;5109911;28;20028;-89
2023/07/12 01:41:40;;;;;;;2.90;2.00;;;;;;;;;;5107693;28;20024;-90
2023/07/12 01:44:26;;;;;;;1.92;1.65;;;;;;;;;;5107760;28;20058;-85
2023/07/12 01:46:51;;;;;;;2.95;1.75;;;;;;;;;;5108541;28;20102;-85
2023/07/12 01:49:17;;;;;;;2.85;1.98;;;;;;;;;;5113590;28;20383;-89
2023/07/12 01:51:52;;;;;;;2.00;1.25;;;;;;;;;;5104333;27;20035;-88
2023/07/12 01:54:17;;;;;;;2.63;2.10;;;;;;;;;;5098663;28;20023;-87
2023/07/12 01:56:43;;;;;;;1.25;1.05;;;;;;;;;;5095581;28;20387;-87
2023/07/12 01:59:08;;;;;;;1.40;1.27;;;;;;;;;;5119631;28;20027;-89
2023/07/12 02:01:34;;;;;;;3.35;1.80;;;;;;;;;;5098004;28;20490;-88
2023/07/12 02:04:00;;;;;;;2.35;1.80;;;;;;;;;;5103116;28;20028;-88
2023/07/12 02:06:25;;;;;;;2.75;1.92;;;;;;;;;;5088930;28;20044;-87
2023/07/12 02:08:51;;;;;;;2.58;1.73;;;;;;;;;;5117119;28;20027;-88
2023/07/12 02:11:16;;;;;;;2.95;1.58;;;;;;;;;;5115927;28;20016;-88
2023/07/12 02:13:42;;;;;;;2.38;1.83;;;;;;;;;;5092751;28;20080;-87
2023/07/12 02:16:07;;;;;;;2.33;2.13;;;;;;;;;;5098469;28;20491;-87
2023/07/12 02:18:33;;;;;;;2.05;1.55;;;;;;;;;;5100067;28;20027;-87
2023/07/12 02:20:58;;;;;;;2.05;1.50;;;;;;;;;;5117169;28;20027;-90
2023/07/12 02:23:24;;;;;;;1.98;1.52;;;;;;;;;;5118935;28;20357;-86
2023/07/12 02:25:49;;;;;;;2.30;1.58;;;;;;;;;;5115091;28;20020;-87
2023/07/12 02:28:15;;;;;;;2.58;1.50;;;;;;;;;;5103408;28;20019;-89
2023/07/12 02:30:42;;;;;;;2.03;1.65;;;;;;;;;;5098611;28;20471;-87
2023/07/12 02:33:07;;;;;;;1.30;1.20;;;;;;;;;;5098524;28;20056;-88
2023/07/12 02:35:33;;;;;;;1.40;1.25;;;;;;;;;;5100339;28;20027;-90
2023/07/12 02:38:00;;;;;;;2.70;1.42;;;;;;;;;;5098227;28;20031;-89
2023/07/12 02:40:26;;;;;;;2.20;1.80;;;;;;;;;;5088604;28;20028;-86
2023/07/12 02:42:53;;;;;;;1.38;0.90;;;;;;;;;;5092272;28;20039;-88
2023/07/12 02:45:18;;;;;;;2.05;1.70;;;;;;;;;;5098999;28;20059;-90
2023/07/12 02:47:44;;;;;;;1.48;1.33;;;;;;;;;;5085195;28;20031;-89
2023/07/12 02:50:10;;;;;;;2.22;1.75;;;;;;;;;;5094181;28;20027;-87
2023/07/12 02:52:35;;;;;;;4.60;1.92;;;;;;;;;;5094370;28;20027;-88
2023/07/12 02:55:01;;;;;;;1.58;1.02;;;;;;;;;;5094900;28;20024;-87
2023/07/12 02:57:27;;;;;;;1.80;1.45;;;;;;;;;;5097329;28;20083;-89
2023/07/12 02:59:53;;;;;;;1.98;1.27;;;;;;;;;;5098610;28;20386;-87
2023/07/12 03:02:22;;;;;;;1.90;1.70;;;;;;;;;;5094800;28;20020;-87
2023/07/12 03:04:48;;;;;;;2.17;1.77;;;;;;;;;;5072360;28;20042;-86
2023/07/12 03:07:13;;;;;;;1.90;1.40;;;;;;;;;;5096994;28;20569;-90
2023/07/12 03:09:39;;;;;;;2.40;1.40;;;;;;;;;;5071948;28;20048;-85
2023/07/12 03:12:05;;;;;;;2.05;1.73;;;;;;;;;;5095351;28;20557;-86
2023/07/12 03:14:31;;;;;;;5.13;1.73;;;;;;;;;;5095226;28;20028;-89
2023/07/12 03:16:59;;;;;;;2.25;1.55;;;;;;;;;;5097366;28;20038;-90
2023/07/12 03:19:25;;;;;;;2.30;1.50;;;;;;;;;;5090734;28;20024;-89
2023/07/12 03:21:50;;;;;;;2.83;1.83;;;;;;;;;;5095490;28;20031;-86
2023/07/12 03:24:16;;;;;;;3.45;1.42;;;;;;;;;;5093442;28;20467;-88
2023/07/12 03:26:41;;;;;;;1.80;1.35;;;;;;;;;;5095990;28;20020;-87
2023/07/12 03:29:07;;;;;;;2.30;1.40;;;;;;;;;;5094530;28;20020;-87
2023/07/12 03:31:33;;;;;;;1.40;1.30;;;;;;;;;;5098531;28;20051;-89
2023/07/12 03:33:59;;;;;;;2.97;1.30;;;;;;;;;;5103668;28;20039;-87
2023/07/12 03:36:29;;;;;;;2.20;1.25;;;;;;;;;;5097246;28;20034;-86
2023/07/12 03:38:56;;;;;;;6.05;2.22;;;;;;;;;;5075131;28;20123;-86
2023/07/12 03:41:22;;;;;;;2.00;1.27;;;;;;;;;;5103426;28;20099;-87
2023/07/12 03:43:47;;;;;;;2.97;1.45;;;;;;;;;;5080297;28;20032;-88
2023/07/12 03:46:14;;;;;;;1.27;1.02;;;;;;;;;;5093678;28;20028;-87
2023/07/12 03:48:39;;;;;;;2.53;1.65;;;;;;;;;;5070364;28;20066;-87
2023/07/12 03:51:06;;;;;;;2.40;1.88;;;;;;;;;;5095970;28;20055;-87
2023/07/12 03:53:31;;;;;;;2.90;1.77;;;;;;;;;;5072915;28;20172;-88
2023/07/12 03:55:59;;;;;;;2.85;2.05;;;;;;;;;;5095482;28;20094;-88
2023/07/12 03:58:26;;;;;;;1.55;1.17;;;;;;;;;;5094139;28;20098;-88
2023/07/12 04:00:55;;;;;;;1.42;1.25;;;;;;;;;;5094775;28;20024;-88
2023/07/12 04:03:20;;;;;;;2.70;1.80;;;;;;;;;;5076633;28;20028;-88
2023/07/12 04:05:50;;;;;;;4.18;2.47;;;;;;;;;;5093951;28;20092;-87
2023/07/12 04:08:17;;;;;;;2.05;1.70;;;;;;;;;;5072580;28;20423;-90
2023/07/12 04:10:43;;;;;;;3.10;1.90;;;;;;;;;;5072120;28;20166;-87
2023/07/12 04:13:08;;;;;;;3.08;1.98;;;;;;;;;;5078998;28;20103;-89
2023/07/12 04:15:35;;;;;;;1.10;1.00;;;;;;;;;;5096811;28;20495;-83
2023/07/12 04:18:02;;;;;;;2.08;1.45;;;;;;;;;;5096246;28;20034;-91
2023/07/12 04:20:27;;;;;;;4.00;2.60;;;;;;;;;;5077283;28;20016;-88
2023/07/12 04:22:52;;;;;;;3.95;2.20;;;;;;;;;;5078343;28;20146;-95
2023/07/12 04:25:26;;;;;;;3.70;1.80;;;;;;;;;;5080408;28;20032;-90
2023/07/12 04:27:51;;;;;;;3.03;2.22;;;;;;;;;;5091943;28;20040;-88
2023/07/12 04:30:23;;;;;;;3.38;1.75;;;;;;;;;;5091854;28;20024;-89
2023/07/12 04:32:52;;;;;;;1.85;1.33;;;;;;;;;;5075242;28;20109;-91
2023/07/12 04:35:47;;;;;;;2.10;1.45;;;;;;;;;;5074704;28;20027;-90
2023/07/12 04:38:13;;;;;;;1.90;1.70;;;;;;;;;;5070015;28;20036;-91
2023/07/12 04:40:38;;;;;;;3.30;1.92;;;;;;;;;;5094299;28;20070;-90
2023/07/12 04:43:04;;;;;;;6.80;2.58;;;;;;;;;;5086788;28;20028;-90
2023/07/12 04:45:29;;;;;;;1.48;1.35;;;;;;;;;;5071056;28;20108;-91
2023/07/12 04:47:55;;;;;;;1.92;1.73;;;;;;;;;;5072538;28;20028;-91
2023/07/12 04:50:20;;;;;;;5.38;2.22;;;;;;;;;;5091700;28;20506;-91
2023/07/12 04:52:47;;;;;;;2.65;1.83;;;;;;;;;;5096685;28;20048;-89
2023/07/12 04:55:29;;;;;;;2.78;2.10;;;;;;;;;;5078636;28;20074;-90
2023/07/12 04:57:55;;;;;;;3.78;2.88;;;;;;;;;;5070893;28;20036;-91
2023/07/12 05:00:23;;;;;;;3.42;1.88;;;;;;;;;;5076322;28;20028;-90
2023/07/12 05:02:49;;;;;;;3.63;2.25;;;;;;;;;;5077814;28;20036;-88
2023/07/12 05:05:17;;;;;;;4.00;2.53;;;;;;;;;;5096016;28;20034;-88
2023/07/12 05:07:43;;;;;;;2.65;1.77;;;;;;;;;;5092815;28;20039;-90
2023/07/12 05:10:10;;;;;;;4.03;2.13;;;;;;;;;;5096500;28;20024;-90
2023/07/12 05:12:37;;;;;;;3.05;2.33;;;;;;;;;;5076033;28;20111;-93
2023/07/12 05:15:03;;;;;;;2.30;1.67;;;;;;;;;;5074233;28;20082;-89
2023/07/12 05:17:29;;;;;;;4.10;2.17;;;;;;;;;;5075546;28;20110;-90
2023/07/12 05:19:55;;;;;;;2.92;1.88;;;;;;;;;;5076913;28;20107;-89
2023/07/12 05:22:21;;;;;;;3.53;1.98;;;;;;;;;;5094200;28;20031;-89
2023/07/12 05:24:46;;;;;;;3.13;2.47;;;;;;;;;;5074263;28;20047;-88
2023/07/12 05:27:12;;;;;;;4.90;2.55;;;;;;;;;;5094448;28;20077;-89
2023/07/12 05:29:37;;;;;;;2.28;1.60;;;;;;;;;;5070741;28;20131;-88
2023/07/12 05:32:03;;;;;;;2.75;1.95;;;;;;;;;;5079598;28;20043;-89
2023/07/12 05:34:28;;;;;;;3.50;2.53;;;;;;;;;;5130650;27;20027;-90
2023/07/12 05:36:54;;;;;;;2.03;1.75;;;;;;;;;;5117504;27;20364;-90
2023/07/12 05:39:19;;;;;;;2.30;1.85;;;;;;;;;;5115295;27;20027;-90
2023/07/12 05:41:45;;;;;;;2.53;2.00;;;;;;;;;;5131786;27;20031;-89
2023/07/12 05:44:10;;;;;;;2.65;1.92;;;;;;;;;;5117918;27;20023;-90
2023/07/12 05:46:37;;;;;;;3.60;2.53;;;;;;;;;;5117138;27;20102;-88
2023/07/12 05:49:03;;;;;;;5.95;2.72;;;;;;;;;;5116119;27;20109;-89
2023/07/12 05:51:28;;;;;;;2.75;2.22;;;;;;;;;;5125759;27;20119;-83
2023/07/12 05:53:54;;;;;;;2.50;1.88;;;;;;;;;;5111035;27;20034;-84
2023/07/12 05:56:19;;;;;;;3.00;1.90;;;;;;;;;;5134234;27;20097;-85
2023/07/12 05:58:47;;;;;;;2.28;2.00;;;;;;;;;;5132440;27;20023;-91
2023/07/12 06:01:12;;;;;;;2.55;1.83;;;;;;;;;;5119815;27;20019;-93
2023/07/12 06:03:38;;;;;;;3.65;2.05;;;;;;;;;;5137081;27;20026;-91
2023/07/12 06:06:42;;;;;;;2.03;1.70;;;;;;;;;;5136021;27;20019;-91
2023/07/12 06:09:16;;;;;;;2.38;2.17;;;;;;;;;;5131502;27;20449;-87
2023/07/12 06:11:41;;;;;;;2.30;1.88;;;;;;;;;;5135032;27;20031;-88
2023/07/12 06:14:07;;;;;;;2.15;2.00;;;;;;;;;;5130832;27;20068;-91
2023/07/12 06:16:34;;;;;;;1.73;1.52;;;;;;;;;;5116901;27;20498;-89
2023/07/12 06:18:59;;;;;;;2.17;1.75;;;;;;;;;;5116672;27;20038;-89
2023/07/12 06:21:25;;;;;;;4.25;2.80;;;;;;;;;;5114736;27;20011;-90
2023/07/12 06:23:50;;;;;;;3.50;2.80;;;;;;;;;;5131549;27;20019;-90
2023/07/12 06:26:16;;;;;;;3.75;2.80;;;;;;;;;;5133700;27;20019;-89
2023/07/12 06:28:41;;;;;;;5.43;2.22;;;;;;;;;;5128385;27;20515;-86
2023/07/12 06:31:07;;;;;;;2.75;1.90;;;;;;;;;;5133401;27;20042;-86
2023/07/12 06:33:32;;;;;;;3.45;2.83;;;;;;;;;;5134357;27;20028;-85
2023/07/12 06:35:58;;;;;;;1.95;1.50;;;;;;;;;;5132476;27;20102;-88
2023/07/12 06:38:23;;;;;;;3.58;2.55;;;;;;;;;;5134135;27;20019;-90
2023/07/12 06:40:49;;;;;;;5.85;3.20;;;;;;;;;;5135717;27;20015;-93
2023/07/12 06:43:14;;;;;;;4.22;2.42;;;;;;;;;;5126597;27;20034;-89
2023/07/12 06:45:43;;;;;;;3.85;1.90;;;;;;;;;;5117087;27;20039;-90
2023/07/12 06:48:08;;;;;;;3.72;2.92;;;;;;;;;;5135221;27;20474;-93
2023/07/12 06:50:34;;;;;;;2.03;1.77;;;;;;;;;;5131745;27;20031;-87
2023/07/12 06:52:59;;;;;;;3.42;2.58;;;;;;;;;;5114457;27;20054;-89
2023/07/12 06:55:24;;;;;;;2.40;2.13;;;;;;;;;;5135029;27;20428;-88
2023/07/12 06:57:50;;;;;;;3.00;2.42;;;;;;;;;;5114552;27;20053;-88
2023/07/12 07:00:15;;;;;;;3.55;2.28;;;;;;;;;;5127043;27;20540;-87
2023/07/12 07:02:41;;;;;;;4.13;2.78;;;;;;;;;;5133692;27;20585;-88
2023/07/12 07:05:06;;;;;;;2.92;2.13;;;;;;;;;;5133592;27;20091;-89
2023/07/12 07:07:32;;;;;;;3.10;2.80;;;;;;;;;;5130339;27;20027;-90
2023/07/12 07:09:57;;;;;;;3.40;2.63;;;;;;;;;;5113689;27;20038;-87
2023/07/12 07:12:23;;;;;;;4.45;2.45;;;;;;;;;;5131570;27;20027;-89
2023/07/12 07:14:48;;;;;;;4.97;3.08;;;;;;;;;;5109086;27;20045;-88
2023/07/12 07:17:14;;;;;;;3.78;2.47;;;;;;;;;;5128182;27;20057;-91
2023/07/12 07:19:39;;;;;;;3.55;2.50;;;;;;;;;;5134625;27;20382;-91
2023/07/12 07:22:06;;;;;;;3.10;2.28;;;;;;;;;;5112714;27;20023;-91
2023/07/12 07:24:31;;;;;;;3.55;2.13;;;;;;;;;;5131265;27;20470;-89
2023/07/12 07:26:57;;;;;;;5.47;2.55;;;;;;;;;;5129271;27;20033;-87
2023/07/12 07:29:22;;;;;;;2.45;2.17;;;;;;;;;;5110007;27;20022;-89
2023/07/12 07:31:48;;;;;;;2.35;2.15;;;;;;;;;;5130618;27;20126;-91
2023/07/12 07:34:14;;;;;;;8.60;2.22;;;;;;;;;;5115441;27;20061;-92
2023/07/12 07:36:40;;;;;;;3.15;2.28;;;;;;;;;;5114532;27;20079;-87
2023/07/12 07:39:06;;;;;;;3.05;2.47;;;;;;;;;;5133648;27;20030;-85
2023/07/12 07:41:32;;;;;;;3.72;2.45;;;;;;;;;;5133356;27;20036;-86
2023/07/12 07:43:57;;;;;;;2.55;1.77;;;;;;;;;;5113294;27;20039;-88
2023/07/12 07:46:23;;;;;;;2.25;1.65;;;;;;;;;;5131710;27;20023;-89
2023/07/12 07:48:49;;;;;;;3.75;2.53;;;;;;;;;;5113833;27;20133;-88
2023/07/12 07:51:14;;;;;;;2.13;1.88;;;;;;;;;;5114837;27;20023;-88
2023/07/12 07:53:40;;;;;;;2.80;1.88;;;;;;;;;;5131922;27;20022;-87
2023/07/12 07:56:06;;;;;;;3.63;2.25;;;;;;;;;;5114926;27;20023;-89
2023/07/12 07:58:31;;;;;;;3.70;2.42;;;;;;;;;;5114854;27;20496;-91
2023/07/12 08:00:57;;;;;;;2.78;1.95;;;;;;;;;;5133430;27;20047;-90
2023/07/12 08:03:22;;;;;;;2.33;1.67;;;;;;;;;;5127012;27;20071;-91
2023/07/12 08:05:48;;;;;;;2.70;2.42;;;;;;;;;;5115710;27;20035;-90
2023/07/12 08:08:14;;;;;;;3.55;2.15;;;;;;;;;;5132254;27;20127;-88
2023/07/12 08:10:41;;;;;;;2.88;2.28;;;;;;;;;;5133517;27;20041;-91
2023/07/12 08:13:06;;;;;;;2.55;2.25;;;;;;;;;;5129272;27;20397;-91
2023/07/12 08:15:33;;;;;;;3.72;2.65;;;;;;;;;;5116242;27;20046;-93
2023/07/12 08:17:59;;;;;;;3.20;2.25;;;;;;;;;;5113282;28;20031;-91
2023/07/12 08:20:27;;;;;;;5.28;3.00;;;;;;;;;;5128152;27;20057;-90
2023/07/12 08:22:53;;;;;;;4.03;3.05;;;;;;;;;;5133250;27;20029;-88
2023/07/12 08:25:19;;;;;;;4.07;3.00;;;;;;;;;;5134939;27;20394;-91
2023/07/12 08:27:47;;;;;;;3.00;2.40;;;;;;;;;;5134391;28;20033;-90
2023/07/12 08:30:13;;;;;;;4.07;2.17;;;;;;;;;;5113455;28;20039;-89
2023/07/12 08:32:40;;;;;;;3.42;2.60;;;;;;;;;;5132693;28;20406;-87
2023/07/12 08:35:06;;;;;;;2.85;2.30;;;;;;;;;;5131767;27;20039;-87
2023/07/12 08:37:32;;;;;;;2.90;2.45;;;;;;;;;;5133092;28;20474;-90
2023/07/12 08:39:57;;;;;;;2.83;1.83;;;;;;;;;;5110616;28;20093;-87
2023/07/12 08:42:26;;;;;;;5.55;3.17;;;;;;;;;;5130036;28;20072;-92
2023/07/12 08:44:53;;;;;;;3.20;2.10;;;;;;;;;;5133307;28;20058;-90
2023/07/12 08:47:23;;;;;;;3.40;2.55;;;;;;;;;;5132810;28;20027;-87
2023/07/12 08:49:49;;;;;;;3.58;2.35;;;;;;;;;;5127300;28;20367;-90
2023/07/12 08:52:19;;;;;;;3.25;1.85;;;;;;;;;;5112709;28;20034;-86
2023/07/12 08:54:44;;;;;;;3.80;2.88;;;;;;;;;;5133338;28;20043;-94
2023/07/12 08:57:22;;;;;;;3.33;2.20;;;;;;;;;;5115563;28;20034;-94
2023/07/12 08:59:58;;;;;;;4.60;2.72;;;;;;;;;;5116318;28;20034;-86
2023/07/12 09:02:25;;;;;;;4.88;2.78;;;;;;;;;;5111349;28;20029;-91
2023/07/12 09:04:56;;;;;;;3.60;2.42;;;;;;;;;;5133179;28;20451;-92
2023/07/12 09:07:33;;;;;;;4.57;2.80;;;;;;;;;;5115411;28;20034;-91
2023/07/12 09:09:59;;;;;;;2.45;2.05;;;;;;;;;;5125385;28;20020;-90
2023/07/12 09:12:29;;;;;;;2.33;1.90;;;;;;;;;;5114372;28;20119;-87
2023/07/12 09:15:11;;;;;;;2.55;2.15;;;;;;;;;;5134790;28;20027;-90
2023/07/12 09:17:55;;;;;;;2.20;2.00;;;;;;;;;;5134208;28;20023;-89
2023/07/12 09:20:41;;;;;;;2.90;2.25;;;;;;;;;;5118260;28;20030;-89
2023/07/12 09:23:13;;;;;;;1.55;1.40;;;;;;;;;;5116559;28;20057;-87
2023/07/12 09:25:39;;;;;;;2.58;2.20;;;;;;;;;;5135876;27;20100;-87
2023/07/12 09:28:05;;;;;;;4.10;2.72;;;;;;;;;;5112806;27;20058;-84
2023/07/12 09:30:33;;;;;;;5.65;2.50;;;;;;;;;;5133261;27;20054;-84
2023/07/12 09:33:03;;;;;;;3.47;2.42;;;;;;;;;;5120236;27;20055;-87
2023/07/12 09:35:37;;;;;;;3.30;2.40;;;;;;;;;;5136874;27;20071;-83
2023/07/12 09:38:08;;;;;;;3.92;2.60;;;;;;;;;;5136769;27;20082;-86
2023/07/12 09:40:39;;;;;;;5.63;3.72;;;;;;;;;;5120863;27;20034;-90
2023/07/12 09:43:14;;;;;;;4.57;2.95;;;;;;;;;;5139903;27;20067;-86
2023/07/12 09:45:42;;;;;;;4.03;2.70;;;;;;;;;;5138156;27;20477;-88
2023/07/12 09:48:22;;;;;;;3.03;2.53;;;;;;;;;;5137083;27;20140;-86
2023/07/12 09:51:03;;;;;;;4.65;2.60;;;;;;;;;;5138003;27;20034;-87
2023/07/12 09:53:45;;;;;;;4.22;2.50;;;;;;;;;;5134941;27;20027;-87
2023/07/12 09:56:30;;;;;;;3.20;2.58;;;;;;;;;;5129705;27;20048;-91
2023/07/12 09:59:26;;;;;;;4.68;2.50;;;;;;;;;;5135329;27;20039;-85
2023/07/12 10:01:56;;;;;;;4.72;2.70;;;;;;;;;;5112469;27;20031;-86
2023/07/12 10:04:41;;;;;;;4.13;3.00;;;;;;;;;;5118560;27;20027;-89
2023/07/12 10:07:25;;;;;;;4.22;2.67;;;;;;;;;;5123142;27;20379;-90
2023/07/12 10:09:54;;;;;;;4.82;2.95;;;;;;;;;;5117780;27;20019;-89
2023/07/12 10:12:41;;;;;;;4.85;3.00;;;;;;;;;;5115152;27;20053;-89
2023/07/12 10:15:11;;;;;;;5.25;2.95;;;;;;;;;;5112897;27;20107;-88
2023/07/12 10:17:44;;;;;;;2.75;2.33;;;;;;;;;;5140071;27;20023;-89
2023/07/12 10:20:18;;;;;;;3.67;2.55;;;;;;;;;;5121982;27;20025;-87
2023/07/12 10:22:45;;;;;;;3.08;2.17;;;;;;;;;;5139910;27;20023;-88
2023/07/12 10:25:24;;;;;;;4.70;2.40;;;;;;;;;;5135366;27;20086;-90
2023/07/12 10:28:19;;;;;;;3.47;2.63;;;;;;;;;;5133955;27;20030;-89
2023/07/12 10:30:48;;;;;;;4.13;2.50;;;;;;;;;;5139250;27;20031;-87
2023/07/12 10:33:29;;;;;;;3.22;2.30;;;;;;;;;;5124024;27;20450;-88
2023/07/12 10:36:02;;;;;;;1.88;1.65;;;;;;;;;;5139064;27;20046;-87
2023/07/12 10:38:28;;;;;;;2.67;1.52;;;;;;;;;;5125477;27;20025;-85
2023/07/12 10:41:28;;;;;;;4.97;2.08;;;;;;;;;;5124244;27;20042;-92
2023/07/12 10:44:22;;;;;;;2.03;1.35;;;;;;;;;;5123258;27;20089;-88
2023/07/12 10:47:03;;;;;;;1.88;1.10;;;;;;;;;;5134692;27;20042;-86
2023/07/12 10:50:20;;;;;;;1.75;1.40;;;;;;;;;;5139695;27;20031;-85
2023/07/12 10:53:14;;;;;;;2.15;1.70;;;;;;;;;;5056424;28;20045;-86
2023/07/12 10:56:03;;;;;;;2.10;1.00;;;;;;;;;;5041110;28;20067;-86
2023/07/12 10:58:48;;;;;;;1.77;1.30;;;;;;;;;;5131095;27;20034;-86
2023/07/12 11:01:42;;;;;;;1.85;1.40;;;;;;;;;;5137740;27;20026;-86
2023/07/12 11:04:15;;;;;;;2.25;1.45;;;;;;;;;;5132134;27;20020;-87
2023/07/12 11:07:03;;;;;;;2.42;1.58;;;;;;;;;;5140142;27;20019;-85
2023/07/12 11:09:47;;;;;;;1.30;1.20;;;;;;;;;;5116098;27;20035;-87
2023/07/12 11:12:46;;;;;;;3.03;1.85;;;;;;;;;;5115393;27;20485;-88
2023/07/12 11:15:24;;;;;;;2.08;1.48;;;;;;;;;;5113662;27;20030;-84
2023/07/12 11:18:09;;;;;;;1.90;1.70;;;;;;;;;;5115909;27;20050;-87
2023/07/12 11:21:20;;;;;;;2.95;1.92;;;;;;;;;;5131820;27;20031;-85
2023/07/12 11:23:48;;;;;;;2.03;1.40;;;;;;;;;;5109016;27;20047;-87
2023/07/12 11:26:22;;;;;;;2.47;1.77;;;;;;;;;;5134530;27;20577;-86
2023/07/12 11:28:48;;;;;;;1.85;1.58;;;;;;;;;;5114295;27;20031;-87
2023/07/12 11:31:23;;;;;;;2.85;2.15;;;;;;;;;;5110747;27;20028;-88
2023/07/12 11:33:59;;;;;;;2.42;1.75;;;;;;;;;;5115993;27;20110;-87
2023/07/12 11:36:28;;;;;;;1.50;1.30;;;;;;;;;;5132700;27;20027;-89
2023/07/12 11:38:55;;;;;;;3.08;1.75;;;;;;;;;;5130686;27;20034;-88
2023/07/12 11:41:23;;;;;;;1.58;1.30;;;;;;;;;;5132130;27;20102;-88
2023/07/12 11:43:58;;;;;;;2.50;1.75;;;;;;;;;;5133035;27;20037;-86
2023/07/12 11:46:28;;;;;;;2.78;1.45;;;;;;;;;;5113845;28;20027;-88
2023/07/12 11:49:11;;;;;;;1.90;1.48;;;;;;;;;;5125468;27;20100;-87
2023/07/12 11:51:39;;;;;;;1.63;1.25;;;;;;;;;;5111496;27;20011;-87
2023/07/12 11:54:20;;;;;;;1.85;1.27;;;;;;;;;;5133688;27;20106;-87
2023/07/12 11:56:47;;;;;;;2.67;1.80;;;;;;;;;;5129438;27;20043;-88
2023/07/12 11:59:21;;;;;;;3.28;1.75;;;;;;;;;;5114007;27;20497;-90
2023/07/12 12:01:49;;;;;;;7.43;2.28;;;;;;;;;;5112265;27;20065;-88
2023/07/12 12:04:21;;;;;;;2.58;1.65;;;;;;;;;;5130785;27;20038;-85
2023/07/12 12:06:49;;;;;;;2.90;2.00;;;;;;;;;;5126883;27;20024;-83
2023/07/12 12:09:15;;;;;;;3.58;2.20;;;;;;;;;;5131082;27;20025;-87
2023/07/12 12:11:40;;;;;;;3.15;2.00;;;;;;;;;;5114134;28;20027;-85
2023/07/12 12:14:18;;;;;;;2.53;1.80;;;;;;;;;;5113594;27;20027;-89
2023/07/12 12:16:52;;;;;;;3.10;2.10;;;;;;;;;;5111725;27;20500;-89
2023/07/12 12:19:18;;;;;;;1.60;1.38;;;;;;;;;;5131728;27;20076;-87
2023/07/12 12:21:52;;;;;;;1.73;1.35;;;;;;;;;;5131202;27;20083;-86
2023/07/12 12:24:20;;;;;;;1.88;1.52;;;;;;;;;;5129995;27;20466;-87
2023/07/12 12:26:47;;;;;;;2.78;2.03;;;;;;;;;;5132735;27;20023;-85
2023/07/12 12:29:24;;;;;;;3.25;2.03;;;;;;;;;;5105727;28;20050;-88
2023/07/12 12:31:54;;;;;;;2.03;1.73;;;;;;;;;;5129561;28;20043;-84
2023/07/12 12:34:21;;;;;;;6.97;1.92;;;;;;;;;;5131047;28;20391;-89
2023/07/12 12:37:00;;;;;;;1.98;1.20;;;;;;;;;;5132940;28;20097;-86
2023/07/12 12:39:26;;;;;;;2.92;2.17;;;;;;;;;;5110814;28;20132;-88
2023/07/12 12:41:54;;;;;;;4.43;1.92;;;;;;;;;;5127060;28;20053;-88
2023/07/12 12:44:21;;;;;;;2.63;1.80;;;;;;;;;;5131177;27;20474;-88
2023/07/12 12:46:51;;;;;;;1.25;1.15;;;;;;;;;;5132742;28;20599;-86
2023/07/12 12:49:22;;;;;;;2.72;1.70;;;;;;;;;;5114089;28;20084;-87
2023/07/12 12:51:49;;;;;;;2.25;2.05;;;;;;;;;;5114053;28;20027;-87
2023/07/12 12:54:15;;;;;;;1.75;1.30;;;;;;;;;;5114622;28;20050;-87
2023/07/12 12:56:40;;;;;;;2.22;1.40;;;;;;;;;;5132146;28;20050;-86
2023/07/12 12:59:10;;;;;;;3.08;1.95;;;;;;;;;;5116152;27;20366;-86
2023/07/12 13:01:36;;;;;;;2.00;1.40;;;;;;;;;;5131941;27;20034;-86
2023/07/12 13:04:01;;;;;;;2.38;2.05;;;;;;;;;;5136716;27;20031;-84
2023/07/12 13:06:27;;;;;;;2.03;1.73;;;;;;;;;;5116788;27;20052;-85
2023/07/12 13:08:53;;;;;;;1.75;1.40;;;;;;;;;;5135250;27;20030;-86
2023/07/12 13:11:19;;;;;;;2.67;1.90;;;;;;;;;;5117006;27;20395;-90
2023/07/12 13:13:45;;;;;;;1.40;1.25;;;;;;;;;;5133822;27;20034;-86
2023/07/12 13:16:19;;;;;;;2.65;1.67;;;;;;;;;;5135250;27;20027;-88
2023/07/12 13:18:46;;;;;;;4.28;2.13;;;;;;;;;;5133848;27;20031;-82
2023/07/12 13:21:23;;;;;;;2.40;1.58;;;;;;;;;;5135770;27;20486;-82
2023/07/12 13:23:48;;;;;;;2.17;1.98;;;;;;;;;;5131346;27;20494;-86
2023/07/12 13:26:20;;;;;;;1.67;1.33;;;;;;;;;;5117352;27;20030;-85
2023/07/12 13:28:46;;;;;;;2.83;1.88;;;;;;;;;;5134910;27;20035;-86
2023/07/12 13:31:13;;;;;;;1.70;1.38;;;;;;;;;;5135756;27;22058;-85
2023/07/12 13:33:39;;;;;;;2.30;1.80;;;;;;;;;;5133798;27;20038;-89
2023/07/12 13:36:07;;;;;;;2.47;1.58;;;;;;;;;;5135870;27;20027;-87
2023/07/12 13:38:34;;;;;;;1.85;1.50;;;;;;;;;;5135927;27;20034;-89
2023/07/12 13:40:59;;;;;;;1.90;1.70;;;;;;;;;;5115185;27;20026;-84
2023/07/12 13:43:25;;;;;;;3.03;1.38;;;;;;;;;;5134796;27;20493;-88
2023/07/12 13:45:50;;;;;;;1.65;1.27;;;;;;;;;;5135972;27;20019;-89
2023/07/12 13:48:18;;;;;;;1.95;1.50;;;;;;;;;;5134855;27;20494;-88
2023/07/12 13:50:43;;;;;;;1.42;1.27;;;;;;;;;;5133305;27;20027;-85
2023/07/12 13:53:10;;;;;;;2.28;1.58;;;;;;;;;;5129689;27;20027;-85
2023/07/12 13:55:36;;;;;;;1.92;1.23;;;;;;;;;;5126165;27;20390;-86
2023/07/12 13:58:01;;;;;;;1.83;1.50;;;;;;;;;;5116438;27;20031;-83
2023/07/12 14:00:27;;;;;;;2.75;1.67;;;;;;;;;;5135622;27;20019;-84
2023/07/12 14:02:55;;;;;;;2.53;1.20;;;;;;;;;;5115778;27;20035;-86
2023/07/12 14:05:21;;;;;;;2.28;1.73;;;;;;;;;;5117053;27;20042;-86
2023/07/12 14:07:47;;;;;;;2.35;1.60;;;;;;;;;;5129639;27;20031;-85
2023/07/12 14:10:18;;;;;;;3.05;1.67;;;;;;;;;;5132830;27;20023;-87
2023/07/12 14:12:44;;;;;;;3.13;1.98;;;;;;;;;;5135415;27;20479;-87
2023/07/12 14:15:22;;;;;;;2.00;1.48;;;;;;;;;;5135424;27;20137;-88
2023/07/12 14:17:48;;;;;;;1.58;1.10;;;;;;;;;;5130630;27;20436;-86
2023/07/12 14:20:14;;;;;;;1.70;1.20;;;;;;;;;;5111887;27;20024;-88
2023/07/12 14:22:40;;;;;;;1.60;1.25;;;;;;;;;;5132540;27;20377;-87
2023/07/12 14:25:06;;;;;;;1.30;1.20;;;;;;;;;;5132779;27;20035;-87
2023/07/12 14:27:34;;;;;;;1.80;1.25;;;;;;;;;;5133022;27;20431;-89
2023/07/12 14:30:00;;;;;;;3.30;2.00;;;;;;;;;;5135256;27;20060;-87
2023/07/12 14:32:35;;;;;;;3.88;1.73;;;;;;;;;;5108004;28;20038;-88
2023/07/12 14:35:03;;;;;;;1.55;1.30;;;;;;;;;;5132813;27;20031;-87
2023/07/12 14:37:32;;;;;;;1.38;0.80;;;;;;;;;;5134300;27;20458;-88
2023/07/12 14:39:57;;;;;;;2.55;1.35;;;;;;;;;;5131741;27;20031;-84
2023/07/12 14:42:27;;;;;;;2.00;1.40;;;;;;;;;;5134344;27;20094;-87
2023/07/12 14:44:53;;;;;;;1.85;1.40;;;;;;;;;;5133385;27;20458;-86
2023/07/12 14:47:19;;;;;;;1.73;1.23;;;;;;;;;;5131413;27;20087;-86
2023/07/12 14:49:45;;;;;;;1.80;1.33;;;;;;;;;;5133886;27;20042;-87
2023/07/12 14:52:27;;;;;;;1.70;1.45;;;;;;;;;;5133337;27;20066;-87
2023/07/12 14:54:54;;;;;;;1.67;1.30;;;;;;;;;;5129436;27;20023;-89
2023/07/12 14:57:20;;;;;;;1.23;0.80;;;;;;;;;;5132177;27;20438;-87